createdAt,value
2022-08-07T00:00:39.968Z,100.00
2022-08-07T00:03:09.193Z,100.00
2022-08-07T00:05:38.068Z,100.00
2022-08-07T00:08:07.854Z,100.00
2022-08-07T00:10:48.206Z,100.00
2022-08-07T00:13:26.903Z,100.00
2022-08-07T00:15:56.825Z,100.00
2022-08-07T00:18:27.377Z,100.00
2022-08-07T00:21:01.762Z,100.00
2022-08-07T00:23:31.758Z,100.00
2022-08-07T00:26:12.971Z,100.00
2022-08-07T00:28:45.847Z,100.00
2022-08-07T00:31:26.249Z,100.00
2022-08-07T00:34:08.850Z,100.00
2022-08-07T00:36:42.802Z,100.00
2022-08-07T00:39:16.103Z,100.00
2022-08-07T00:41:53.458Z,100.00
2022-08-07T00:44:22.866Z,100.00
2022-08-07T00:46:55.986Z,100.00
2022-08-07T00:50:21.454Z,100.00
2022-08-07T00:52:12.907Z,100.00
2022-08-07T00:54:41.176Z,100.00
2022-08-07T00:57:10.517Z,100.00
2022-08-07T00:59:40.376Z,100.00
2022-08-07T01:02:14.171Z,100.00
2022-08-07T01:04:58.215Z,100.00
2022-08-07T01:07:29.533Z,100.00
2022-08-07T01:10:06.253Z,100.00
2022-08-07T01:12:54.030Z,100.00
2022-08-07T01:16:01.016Z,100.00
2022-08-07T01:18:17.702Z,100.00
2022-08-07T01:21:00.450Z,100.00
2022-08-07T01:23:37.885Z,100.00
2022-08-07T01:26:12.074Z,100.00
2022-08-07T01:28:46.217Z,100.00
2022-08-07T01:31:27.886Z,100.00
2022-08-07T01:34:11.072Z,100.00
2022-08-07T01:36:44.060Z,100.00
2022-08-07T01:39:18.197Z,100.00
2022-08-07T01:42:37.935Z,100.00
2022-08-07T01:44:43.717Z,100.00
2022-08-07T01:48:29.176Z,100.00
2022-08-07T01:50:07.057Z,100.00
2022-08-07T01:52:40.782Z,100.00
2022-08-07T01:55:22.324Z,100.00
2022-08-07T01:58:05.858Z,100.00
2022-08-07T02:00:51.147Z,100.00
2022-08-07T02:03:42.766Z,100.00
2022-08-07T02:06:31.824Z,100.00
2022-08-07T02:09:08.798Z,100.00
2022-08-07T02:12:03.341Z,100.00
2022-08-07T02:14:40.896Z,100.00
2022-08-07T02:17:27.548Z,100.00
2022-08-07T02:20:07.334Z,100.00
2022-08-07T02:22:43.633Z,100.00
2022-08-07T02:25:17.487Z,100.00
2022-08-07T02:27:58.349Z,100.00
2022-08-07T02:30:28.168Z,100.00
2022-08-07T02:33:03.918Z,100.00
2022-08-07T02:36:30.419Z,100.00
2022-08-07T02:38:38.229Z,100.00
2022-08-07T02:41:07.917Z,100.00
2022-08-07T02:43:43.807Z,100.00
2022-08-07T02:46:21.728Z,100.00
2022-08-07T02:48:56.487Z,100.00
2022-08-07T02:51:41.776Z,100.00
2022-08-07T02:54:13.086Z,100.00
2022-08-07T02:56:43.488Z,100.00
2022-08-07T02:59:24.081Z,100.00
2022-08-07T03:02:01.936Z,100.00
2022-08-07T03:04:32.307Z,100.00
2022-08-07T03:07:07.039Z,100.00
2022-08-07T03:09:45.456Z,100.00
2022-08-07T03:12:22.266Z,100.00
2022-08-07T03:15:07.719Z,100.00
2022-08-07T03:17:53.763Z,100.00
2022-08-07T03:20:26.588Z,100.00
2022-08-07T03:22:56.187Z,100.00
2022-08-07T03:25:32.447Z,100.00
2022-08-07T03:28:38.544Z,100.00
2022-08-07T03:31:26.216Z,100.00
2022-08-07T03:34:18.922Z,100.00
2022-08-07T03:36:57.282Z,100.00
2022-08-07T03:39:58.941Z,100.00
2022-08-07T03:42:20.006Z,100.00
2022-08-07T03:44:53.719Z,100.00
2022-08-07T03:47:47.791Z,100.00
2022-08-07T03:50:23.116Z,100.00
2022-08-07T03:52:54.628Z,100.00
2022-08-07T03:55:23.758Z,100.00
2022-08-07T03:58:33.044Z,100.00
2022-08-07T04:01:03.288Z,100.00
2022-08-07T04:03:49.706Z,100.00
2022-08-07T04:06:37.926Z,100.00
2022-08-07T04:09:15.627Z,100.00
2022-08-07T04:12:23.691Z,100.00
2022-08-07T04:14:43.728Z,100.00
2022-08-07T04:17:21.344Z,100.00
2022-08-07T04:20:11.238Z,100.00
2022-08-07T04:22:41.189Z,100.00
2022-08-07T04:25:24.230Z,100.00
2022-08-07T04:28:00.881Z,100.00
2022-08-07T04:30:39.386Z,100.00
2022-08-07T04:33:19.098Z,100.00
2022-08-07T04:35:54.007Z,100.00
2022-08-07T04:38:28.792Z,100.00
2022-08-07T04:40:58.739Z,100.00
2022-08-07T04:44:10.063Z,100.00
2022-08-07T04:47:04.261Z,100.00
2022-08-07T04:49:37.586Z,100.00
2022-08-07T04:52:19.830Z,100.00
2022-08-07T04:55:15.362Z,100.00
2022-08-07T04:58:26.090Z,100.00
2022-08-07T05:00:51.682Z,100.00
2022-08-07T05:04:00.125Z,100.00
2022-08-07T05:06:20.035Z,100.00
2022-08-07T05:09:02.158Z,100.00
2022-08-07T05:11:58.301Z,100.00
2022-08-07T05:14:52.968Z,100.00
2022-08-07T05:17:50.306Z,100.00
2022-08-07T05:20:17.983Z,100.00
2022-08-07T05:22:50.678Z,100.00
2022-08-07T05:26:11.040Z,100.00
2022-08-07T05:28:20.408Z,100.00
2022-08-07T05:30:55.527Z,100.00
2022-08-07T05:33:29.515Z,100.00
2022-08-07T05:36:00.129Z,100.00
2022-08-07T05:38:59.607Z,100.00
2022-08-07T05:41:22.119Z,100.00
2022-08-07T05:44:12.518Z,100.00
2022-08-07T05:46:51.298Z,100.00
2022-08-07T05:49:25.206Z,100.00
2022-08-07T05:51:55.891Z,100.00
2022-08-07T05:54:31.476Z,100.00
2022-08-07T05:57:19.059Z,100.00
2022-08-07T05:59:57.200Z,100.00
2022-08-07T06:02:34.429Z,100.00
2022-08-07T06:05:10.916Z,100.00
2022-08-07T06:08:13.138Z,100.00
2022-08-07T06:10:34.942Z,100.00
2022-08-07T06:13:07.237Z,100.00
2022-08-07T06:15:43.657Z,100.00
2022-08-07T06:18:22.197Z,100.00
2022-08-07T06:22:14.426Z,100.00
2022-08-07T06:24:36.993Z,100.00
2022-08-07T06:26:34.348Z,100.00
2022-08-07T06:29:06.561Z,100.00
2022-08-07T06:31:47.278Z,100.00
2022-08-07T06:34:21.503Z,100.00
2022-08-07T06:36:51.977Z,100.00
2022-08-07T06:40:17.639Z,100.00
2022-08-07T06:42:20.349Z,100.00
2022-08-07T06:45:15.530Z,100.00
2022-08-07T06:47:59.044Z,100.00
2022-08-07T06:50:43.359Z,100.00
2022-08-07T06:54:12.226Z,100.00
2022-08-07T06:56:15.067Z,100.00
2022-08-07T07:00:14.421Z,100.00
2022-08-07T07:01:48.917Z,100.00
2022-08-07T07:04:32.711Z,100.00
2022-08-07T07:07:10.655Z,100.00
2022-08-07T07:09:49.171Z,100.00
2022-08-07T07:12:31.504Z,100.00
2022-08-07T07:15:08.512Z,100.00
2022-08-07T07:17:45.331Z,100.00
2022-08-07T07:20:19.403Z,100.00
2022-08-07T07:24:05.526Z,100.00
2022-08-07T07:26:35.524Z,100.00
2022-08-07T07:28:48.467Z,100.00
2022-08-07T07:31:24.655Z,100.00
2022-08-07T07:34:05.639Z,100.00
2022-08-07T07:36:35.543Z,100.00
2022-08-07T07:39:10.203Z,100.00
2022-08-07T07:42:02.085Z,100.00
2022-08-07T07:44:32.447Z,100.00
2022-08-07T07:47:13.964Z,100.00
2022-08-07T07:50:34.945Z,100.00
2022-08-07T07:52:43.257Z,100.00
2022-08-07T07:55:11.857Z,100.00
2022-08-07T07:57:51.467Z,100.00
2022-08-07T08:00:29.939Z,100.00
2022-08-07T08:03:08.198Z,100.00
2022-08-07T08:05:50.931Z,100.00
2022-08-07T08:08:34.236Z,100.00
2022-08-07T08:11:08.983Z,100.00
2022-08-07T08:13:53.695Z,100.00
2022-08-07T08:18:36.530Z,100.00
2022-08-07T08:20:17.219Z,100.00
2022-08-07T08:22:32.897Z,100.00
2022-08-07T08:25:41.737Z,100.00
2022-08-07T08:28:16.874Z,100.00
2022-08-07T08:30:57.678Z,100.00
2022-08-07T08:33:33.217Z,100.00
2022-08-07T08:36:03.730Z,100.00
2022-08-07T08:38:40.431Z,100.00
2022-08-07T08:41:16.018Z,100.00
2022-08-07T08:43:58.821Z,100.00
2022-08-07T08:46:38.677Z,100.00
2022-08-07T08:49:18.318Z,100.00
2022-08-07T08:52:14.158Z,99.68
2022-08-07T08:54:54.608Z,97.90
2022-08-07T08:57:30.542Z,96.75
2022-08-07T09:00:07.747Z,92.35
2022-08-07T09:02:38.820Z,92.68
2022-08-07T09:05:36.854Z,93.72
2022-08-07T09:08:24.309Z,90.48
2022-08-07T09:11:09.457Z,89.50
2022-08-07T09:13:56.171Z,89.22
2022-08-07T09:16:36.218Z,88.04
2022-08-07T09:19:53.412Z,85.24
2022-08-07T09:22:37.154Z,83.27
2022-08-07T09:25:17.258Z,83.53
2022-08-07T09:28:00.958Z,80.65
2022-08-07T09:30:34.157Z,80.30
2022-08-07T09:33:16.759Z,77.30
2022-08-07T09:36:10.438Z,75.13
2022-08-07T09:38:50.247Z,72.09
2022-08-07T09:41:36.393Z,69.74
2022-08-07T09:44:30.111Z,68.09
2022-08-07T09:47:52.064Z,68.59
2022-08-07T09:50:19.831Z,64.94
2022-08-07T09:52:52.179Z,65.85
2022-08-07T09:55:29.921Z,65.78
2022-08-07T09:58:52.357Z,65.05
2022-08-07T10:01:52.270Z,64.55
2022-08-07T10:04:38.233Z,63.91
2022-08-07T10:07:31.790Z,63.67
2022-08-07T10:10:21.985Z,62.79
2022-08-07T10:13:11.015Z,61.47
2022-08-07T10:16:11.509Z,61.14
2022-08-07T10:19:11.533Z,59.56
2022-08-07T10:22:14.559Z,61.31
2022-08-07T10:25:05.108Z,59.33
2022-08-07T10:27:47.530Z,60.59
2022-08-07T10:30:26.508Z,59.23
2022-08-07T10:33:15.728Z,58.85
2022-08-07T10:36:05.548Z,59.90
2022-08-07T10:38:51.514Z,58.80
2022-08-07T10:41:51.522Z,59.21
2022-08-07T10:44:28.769Z,59.31
2022-08-07T10:47:27.199Z,59.32
2022-08-07T10:50:15.737Z,58.33
2022-08-07T10:52:56.617Z,56.88
2022-08-07T10:55:38.283Z,57.32
2022-08-07T10:58:32.103Z,57.51
2022-08-07T11:01:23.681Z,56.34
2022-08-07T11:04:23.262Z,55.30
2022-08-07T11:06:59.588Z,54.82
2022-08-07T11:10:07.499Z,53.57
2022-08-07T11:12:31.655Z,53.62
2022-08-07T11:15:14.742Z,54.12
2022-08-07T11:17:54.032Z,53.53
2022-08-07T11:20:25.676Z,54.15
2022-08-07T11:23:01.452Z,52.48
2022-08-07T11:25:47.850Z,51.61
2022-08-07T11:28:24.989Z,52.53
2022-08-07T11:30:59.111Z,52.64
2022-08-07T11:33:58.729Z,53.65
2022-08-07T11:36:40.630Z,51.41
2022-08-07T11:39:19.779Z,50.25
2022-08-07T11:42:18.574Z,48.38
2022-08-07T11:44:57.918Z,47.93
2022-08-07T11:47:56.110Z,46.80
2022-08-07T11:50:44.493Z,45.12
2022-08-07T11:53:38.187Z,44.33
2022-08-07T11:56:37.656Z,43.68
2022-08-07T12:00:11.261Z,43.20
2022-08-07T12:02:32.091Z,42.76
2022-08-07T12:05:15.344Z,42.00
2022-08-07T12:08:03.749Z,41.33
2022-08-07T12:10:41.915Z,41.40
2022-08-07T12:13:18.751Z,43.59
2022-08-07T12:16:11.985Z,42.14
2022-08-07T12:18:48.066Z,42.81
2022-08-07T12:21:55.719Z,43.27
2022-08-07T12:24:38.196Z,43.44
2022-08-07T12:27:15.819Z,42.51
2022-08-07T12:29:51.798Z,42.83
2022-08-07T12:32:29.032Z,43.27
2022-08-07T12:35:03.357Z,41.33
2022-08-07T12:38:11.453Z,41.75
2022-08-07T12:40:48.823Z,42.38
2022-08-07T12:44:03.700Z,41.31
2022-08-07T12:46:26.346Z,41.87
2022-08-07T12:49:25.327Z,42.15
2022-08-07T12:52:14.601Z,42.15
2022-08-07T12:54:59.039Z,42.56
2022-08-07T12:57:39.255Z,40.58
2022-08-07T13:00:32.507Z,40.05
2022-08-07T13:03:27.478Z,38.25
2022-08-07T13:06:30.802Z,38.83
2022-08-07T13:09:33.413Z,39.13
2022-08-07T13:12:10.457Z,38.02
2022-08-07T13:14:55.137Z,37.63
2022-08-07T13:17:39.730Z,37.34
2022-08-07T13:20:16.364Z,37.19
2022-08-07T13:22:55.767Z,38.42
2022-08-07T13:25:32.255Z,38.20
2022-08-07T13:28:12.658Z,37.92
2022-08-07T13:30:53.172Z,36.37
2022-08-07T13:34:31.596Z,37.26
2022-08-07T13:36:42.278Z,36.83
2022-08-07T13:39:49.814Z,36.65
2022-08-07T13:42:14.723Z,36.44
2022-08-07T13:44:55.226Z,35.25
2022-08-07T13:48:05.906Z,35.31
2022-08-07T13:50:44.521Z,37.87
2022-08-07T13:53:23.895Z,38.16
2022-08-07T13:55:57.597Z,38.31
2022-08-07T13:58:56.318Z,38.32
2022-08-07T14:01:28.671Z,38.56
2022-08-07T14:04:08.655Z,36.43
2022-08-07T14:06:40.122Z,37.42
2022-08-07T14:10:17.753Z,36.63
2022-08-07T14:12:10.804Z,35.32
2022-08-07T14:14:46.037Z,36.51
2022-08-07T14:18:12.931Z,37.53
2022-08-07T14:20:42.411Z,37.40
2022-08-07T14:23:08.615Z,36.89
2022-08-07T14:25:48.028Z,37.02
2022-08-07T14:28:55.988Z,35.77
2022-08-07T14:31:08.707Z,34.57
2022-08-07T14:33:44.824Z,35.22
2022-08-07T14:36:15.049Z,34.12
2022-08-07T14:38:50.633Z,34.47
2022-08-07T14:41:34.190Z,34.37
2022-08-07T14:44:19.058Z,36.26
2022-08-07T15:54:39.404Z,37.48
2022-08-07T15:57:39.378Z,38.40
2022-08-07T16:00:10.038Z,38.77
2022-08-07T16:03:00.100Z,39.14
2022-08-07T16:05:31.267Z,40.01
2022-08-07T16:08:31.006Z,37.82
2022-08-07T16:11:02.526Z,36.41
2022-08-07T16:13:58.564Z,37.64
2022-08-07T16:16:48.746Z,37.76
2022-08-07T16:19:58.713Z,38.27
2022-08-07T16:23:05.426Z,37.25
2022-08-07T16:25:52.612Z,38.13
2022-08-07T16:30:06.124Z,36.57
2022-08-07T16:31:51.817Z,37.95
2022-08-07T16:34:39.558Z,36.77
2022-08-07T16:38:03.512Z,36.69
2022-08-07T16:41:01.399Z,37.30
2022-08-07T16:44:06.280Z,36.18
2022-08-07T16:47:12.101Z,37.22
2022-08-07T16:50:20.593Z,36.97
2022-08-07T16:54:03.041Z,36.13
2022-08-07T16:56:07.299Z,37.28
2022-08-07T16:59:11.252Z,36.67
2022-08-07T17:01:57.259Z,35.43
2022-08-07T17:04:36.978Z,35.41
2022-08-07T17:07:51.352Z,35.28
2022-08-07T17:10:30.422Z,35.59
2022-08-07T17:13:41.326Z,35.09
2022-08-07T17:16:24.929Z,35.85
2022-08-07T17:19:03.215Z,36.29
2022-08-07T17:21:51.824Z,36.74
2022-08-07T17:24:31.982Z,36.75
2022-08-07T17:27:06.079Z,37.40
2022-08-07T17:30:15.276Z,35.74
2022-08-07T17:32:53.710Z,36.86
2022-08-07T17:35:51.306Z,37.85
2022-08-07T17:38:33.334Z,39.35
2022-08-07T17:42:00.831Z,40.87
2022-08-07T17:44:10.458Z,40.31
2022-08-07T17:46:52.446Z,41.41
2022-08-07T17:49:24.497Z,41.73
2022-08-07T17:52:01.108Z,41.49
2022-08-07T17:54:40.204Z,42.22
2022-08-07T17:57:56.638Z,42.67
2022-08-07T18:00:33.122Z,42.42
2022-08-07T18:03:18.286Z,42.11
2022-08-07T18:06:02.910Z,42.20
2022-08-07T18:09:01.177Z,42.69
2022-08-07T18:12:07.824Z,43.05
2022-08-07T18:14:37.489Z,42.35
2022-08-07T18:18:33.196Z,44.54
2022-08-07T18:21:08.514Z,44.67
2022-08-07T18:23:42.512Z,43.28
2022-08-07T18:26:05.435Z,44.38
2022-08-07T18:28:59.116Z,43.58
2022-08-07T18:31:50.108Z,44.54
2022-08-07T18:34:39.258Z,44.22
2022-08-07T18:38:56.218Z,45.35
2022-08-07T18:40:42.326Z,44.67
2022-08-07T18:43:16.004Z,45.35
2022-08-07T18:46:21.802Z,45.33
2022-08-07T18:50:30.760Z,45.83
2022-08-07T18:52:25.607Z,45.87
2022-08-07T18:54:49.651Z,46.98
2022-08-07T18:57:44.094Z,46.29
2022-08-07T19:00:43.308Z,47.17
2022-08-07T19:03:37.981Z,47.76
2022-08-07T19:06:17.238Z,48.09
2022-08-07T19:09:09.417Z,48.11
2022-08-07T19:12:09.013Z,48.51
2022-08-07T19:15:00.928Z,49.92
2022-08-07T19:17:55.963Z,51.63
2022-08-07T19:20:36.756Z,53.68
2022-08-07T19:23:18.413Z,62.53
2022-08-07T19:26:22.682Z,67.91
2022-08-07T19:30:56.848Z,71.67
2022-08-07T19:32:08.323Z,76.25
2022-08-07T19:34:34.200Z,80.21
2022-08-07T19:37:10.314Z,82.22
2022-08-07T19:39:57.008Z,86.12
2022-08-07T19:42:31.690Z,87.97
2022-08-07T19:45:13.648Z,87.14
2022-08-07T19:48:03.277Z,87.27
2022-08-07T19:50:45.346Z,85.92
2022-08-07T19:54:34.718Z,88.96
2022-08-07T19:56:58.537Z,91.25
2022-08-07T19:59:02.604Z,92.62
2022-08-07T20:01:52.989Z,93.36
2022-08-07T20:04:31.616Z,95.36
2022-08-07T20:07:09.143Z,96.52
2022-08-07T20:10:35.817Z,98.38
2022-08-07T20:12:38.021Z,98.51
2022-08-07T20:15:18.726Z,99.70
2022-08-07T20:18:01.687Z,99.64
2022-08-07T20:20:37.470Z,98.43
2022-08-07T20:23:23.348Z,100.00
2022-08-07T20:26:05.582Z,100.00
2022-08-07T20:28:40.998Z,100.00
2022-08-07T20:31:21.256Z,100.00
2022-08-07T20:33:56.312Z,100.00
2022-08-07T20:36:29.628Z,100.00
2022-08-07T20:39:06.023Z,100.00
2022-08-07T20:41:51.709Z,100.00
2022-08-07T20:44:30.328Z,100.00
2022-08-07T20:47:05.847Z,100.00
2022-08-07T20:49:57.939Z,100.00
2022-08-07T20:52:52.292Z,100.00
2022-08-07T20:55:23.859Z,100.00
2022-08-07T20:58:02.621Z,100.00
2022-08-07T21:00:42.626Z,100.00
2022-08-07T21:03:16.627Z,100.00
2022-08-07T21:05:54.805Z,100.00
2022-08-07T21:08:36.798Z,100.00
2022-08-07T21:11:12.446Z,100.00
2022-08-07T21:14:20.262Z,100.00
2022-08-07T21:16:56.048Z,100.00
2022-08-07T21:19:32.080Z,100.00
2022-08-07T21:22:19.048Z,100.00
2022-08-07T21:25:12.406Z,100.00
2022-08-07T21:28:01.849Z,100.00
2022-08-07T21:30:47.857Z,100.00
2022-08-07T21:33:23.338Z,100.00
2022-08-07T21:36:06.304Z,100.00
2022-08-07T21:38:50.267Z,100.00
2022-08-07T21:41:38.397Z,100.00
2022-08-07T21:44:29.856Z,100.00
2022-08-07T21:47:07.368Z,100.00
2022-08-07T21:50:01.056Z,100.00
2022-08-07T21:52:45.029Z,100.00
2022-08-07T21:55:27.996Z,100.00
2022-08-07T21:58:07.619Z,100.00
2022-08-07T22:00:39.970Z,100.00
2022-08-07T22:03:16.756Z,100.00
2022-08-07T22:05:52.568Z,100.00
2022-08-07T22:08:24.566Z,100.00
2022-08-07T22:10:59.156Z,100.00
2022-08-07T22:13:52.758Z,100.00
2022-08-07T22:16:44.595Z,100.00
2022-08-07T22:19:20.226Z,100.00
2022-08-07T22:22:17.712Z,100.00
2022-08-07T22:24:56.749Z,100.00
2022-08-07T22:27:34.198Z,100.00
2022-08-07T22:30:26.438Z,100.00
2022-08-07T22:33:05.659Z,100.00
2022-08-07T22:35:41.629Z,100.00
2022-08-07T22:38:20.372Z,100.00
2022-08-07T22:40:57.946Z,100.00
2022-08-07T22:43:37.299Z,100.00
2022-08-07T22:47:03.104Z,100.00
2022-08-07T22:49:37.836Z,100.00
2022-08-07T22:52:39.731Z,100.00
2022-08-07T22:55:29.873Z,100.00
2022-08-07T22:58:34.969Z,100.00
2022-08-07T23:01:23.343Z,100.00
2022-08-07T23:04:04.838Z,100.00
2022-08-07T23:07:00.819Z,100.00
2022-08-07T23:10:05.362Z,100.00
2022-08-07T23:12:45.830Z,100.00
2022-08-07T23:16:06.274Z,100.00
2022-08-07T23:18:25.993Z,100.00
2022-08-07T23:21:11.547Z,100.00
2022-08-07T23:24:16.740Z,100.00
2022-08-07T23:27:01.227Z,100.00
2022-08-07T23:30:38.398Z,100.00
2022-08-07T23:34:34.963Z,100.00
2022-08-07T23:35:53.235Z,100.00
2022-08-07T23:38:36.760Z,100.00
2022-08-07T23:41:33.032Z,100.00
2022-08-07T23:44:18.798Z,100.00
2022-08-07T23:47:19.717Z,100.00
2022-08-07T23:50:02.808Z,100.00
2022-08-07T23:53:15.181Z,100.00
2022-08-07T23:55:51.687Z,100.00
2022-08-07T23:58:28.089Z,100.00
